createdAt,value
2018-07-14T00:00:45.268Z,987.06
2018-07-14T00:01:45.239Z,987.02
2018-07-14T00:02:45.209Z,987.01
2018-07-14T00:03:45.180Z,987.01
2018-07-14T00:04:45.150Z,986.99
2018-07-14T00:05:45.115Z,986.99
2018-07-14T00:06:45.081Z,987.00
2018-07-14T00:07:45.050Z,986.99
2018-07-14T00:08:45.027Z,986.98
2018-07-14T00:09:44.990Z,986.98
2018-07-14T00:10:44.958Z,986.96
2018-07-14T00:11:44.923Z,986.94
2018-07-14T00:12:44.895Z,986.93
2018-07-14T00:13:44.862Z,986.88
2018-07-14T00:14:44.835Z,986.88
2018-07-14T00:15:44.805Z,986.90
2018-07-14T00:16:44.775Z,986.86
2018-07-14T00:17:44.744Z,986.88
2018-07-14T00:18:44.709Z,986.87
2018-07-14T00:19:44.671Z,986.85
2018-07-14T00:20:44.645Z,986.87
2018-07-14T00:21:44.619Z,986.86
2018-07-14T00:22:44.582Z,986.89
2018-07-14T00:23:44.553Z,986.85
2018-07-14T00:24:44.515Z,986.88
2018-07-14T00:25:44.493Z,986.87
2018-07-14T00:26:44.458Z,986.88
2018-07-14T00:27:44.429Z,986.90
2018-07-14T00:28:44.397Z,986.93
2018-07-14T00:29:44.365Z,986.92
2018-07-14T00:30:44.328Z,986.91
2018-07-14T00:31:44.297Z,986.91
2018-07-14T00:32:44.264Z,986.95
2018-07-14T00:33:44.235Z,986.94
2018-07-14T00:34:44.205Z,986.93
2018-07-14T00:35:44.176Z,986.95
2018-07-14T00:36:44.145Z,986.96
2018-07-14T00:37:44.111Z,986.95
2018-07-14T00:38:44.077Z,986.94
2018-07-14T00:39:44.044Z,986.99
2018-07-14T00:40:44.019Z,986.98
2018-07-14T00:41:43.993Z,986.99
2018-07-14T00:42:43.952Z,987.00
2018-07-14T00:43:43.919Z,987.03
2018-07-14T00:44:43.888Z,987.00
2018-07-14T00:45:43.858Z,987.01
2018-07-14T00:46:43.828Z,987.02
2018-07-14T00:47:43.797Z,987.02
2018-07-14T00:48:43.771Z,987.04
2018-07-14T00:49:43.737Z,987.02
2018-07-14T00:50:43.699Z,987.01
2018-07-14T00:51:43.666Z,987.04
2018-07-14T00:52:43.634Z,987.00
2018-07-14T00:53:43.606Z,987.03
2018-07-14T00:54:43.575Z,987.10
2018-07-14T00:55:43.546Z,987.10
2018-07-14T00:56:43.510Z,987.07
2018-07-14T00:57:43.484Z,987.12
2018-07-14T00:58:43.450Z,987.10
2018-07-14T00:59:43.423Z,987.08
2018-07-14T01:00:43.390Z,987.09
2018-07-14T01:01:43.355Z,987.11
2018-07-14T01:02:43.319Z,987.09
2018-07-14T01:03:43.287Z,987.10
2018-07-14T01:04:43.254Z,987.11
2018-07-14T01:05:43.228Z,987.11
2018-07-14T01:06:43.199Z,987.11
2018-07-14T01:07:43.168Z,987.11
2018-07-14T01:08:43.138Z,987.11
2018-07-14T01:09:43.103Z,987.13
2018-07-14T01:10:43.066Z,987.11
2018-07-14T01:11:43.036Z,987.10
2018-07-14T01:12:43.010Z,987.11
2018-07-14T01:13:42.974Z,987.10
2018-07-14T01:14:42.941Z,987.09
2018-07-14T01:15:42.906Z,987.12
2018-07-14T01:16:42.878Z,987.14
2018-07-14T01:17:42.853Z,987.13
2018-07-14T01:18:42.827Z,987.14
2018-07-14T01:19:42.786Z,987.15
2018-07-14T01:20:42.758Z,987.13
2018-07-14T01:21:42.719Z,987.12
2018-07-14T01:22:42.684Z,987.15
2018-07-14T01:23:42.656Z,987.10
2018-07-14T01:24:42.620Z,987.11
2018-07-14T01:25:42.593Z,987.07
2018-07-14T01:26:42.560Z,987.10
2018-07-14T01:27:42.530Z,987.08
2018-07-14T01:28:42.492Z,987.07
2018-07-14T01:29:42.464Z,987.05
2018-07-14T01:30:42.432Z,987.03
2018-07-14T01:31:42.403Z,987.07
2018-07-14T01:32:42.371Z,987.04
2018-07-14T01:33:42.337Z,987.04
2018-07-14T01:34:42.307Z,987.10
2018-07-14T01:35:42.272Z,987.10
2018-07-14T01:36:42.237Z,987.08
2018-07-14T01:37:42.212Z,987.05
2018-07-14T01:38:42.177Z,987.06
2018-07-14T01:39:42.148Z,987.06
2018-07-14T01:40:42.159Z,987.05
2018-07-14T01:41:42.081Z,987.07
2018-07-14T01:42:42.049Z,987.05
2018-07-14T01:43:42.021Z,987.06
2018-07-14T01:44:41.986Z,987.08
2018-07-14T01:45:41.954Z,987.00
2018-07-14T01:46:41.919Z,986.99
2018-07-14T01:47:41.885Z,986.99
2018-07-14T01:48:41.856Z,986.98
2018-07-14T01:49:41.878Z,986.97
2018-07-14T01:50:41.794Z,986.94
2018-07-14T01:51:41.766Z,986.94
2018-07-14T01:52:41.733Z,986.93
2018-07-14T01:53:41.696Z,986.92
2018-07-14T01:54:41.662Z,986.90
2018-07-14T01:55:41.629Z,986.87
2018-07-14T01:56:41.596Z,986.88
2018-07-14T01:57:41.568Z,986.89
2018-07-14T01:58:41.537Z,986.88
2018-07-14T01:59:41.509Z,986.87
2018-07-14T02:00:41.468Z,986.87
2018-07-14T02:01:41.439Z,986.86
2018-07-14T02:02:41.415Z,986.83
2018-07-14T02:03:41.380Z,986.87
2018-07-14T02:04:41.346Z,986.88
2018-07-14T02:05:41.313Z,986.86
2018-07-14T02:06:41.277Z,986.88
2018-07-14T02:07:41.244Z,986.85
2018-07-14T02:08:41.212Z,986.84
2018-07-14T02:09:41.181Z,986.83
2018-07-14T02:10:41.150Z,986.86
2018-07-14T02:11:41.122Z,986.81
2018-07-14T02:12:41.088Z,986.83
2018-07-14T02:13:41.054Z,986.86
2018-07-14T02:14:41.019Z,986.85
2018-07-14T02:15:40.988Z,986.85
2018-07-14T02:16:40.961Z,986.87
2018-07-14T02:17:40.925Z,986.87
2018-07-14T02:18:40.894Z,986.87
2018-07-14T02:19:40.855Z,986.88
2018-07-14T02:20:40.824Z,986.92
2018-07-14T02:21:40.792Z,986.90
2018-07-14T02:22:40.764Z,986.89
2018-07-14T02:23:40.733Z,986.94
2018-07-14T02:24:40.700Z,986.92
2018-07-14T02:25:40.670Z,986.91
2018-07-14T02:26:40.630Z,986.91
2018-07-14T02:27:40.598Z,986.87
2018-07-14T02:28:40.571Z,986.89
2018-07-14T02:29:40.536Z,986.91
2018-07-14T02:30:40.505Z,986.92
2018-07-14T02:31:40.473Z,986.89
2018-07-14T02:32:40.435Z,986.88
2018-07-14T02:33:40.405Z,986.93
2018-07-14T02:34:40.376Z,986.96
2018-07-14T02:35:40.349Z,986.93
2018-07-14T02:36:40.317Z,986.97
2018-07-14T02:37:40.278Z,986.98
2018-07-14T02:38:40.245Z,986.98
2018-07-14T02:39:40.209Z,986.98
2018-07-14T02:40:40.176Z,987.02
2018-07-14T02:41:40.147Z,986.99
2018-07-14T02:42:40.118Z,987.03
2018-07-14T02:43:40.085Z,987.02
2018-07-14T02:44:40.053Z,987.01
2018-07-14T02:45:40.020Z,987.02
2018-07-14T02:46:39.989Z,987.08
2018-07-14T02:47:39.951Z,987.04
2018-07-14T02:48:39.926Z,987.06
2018-07-14T02:49:39.888Z,987.09
2018-07-14T02:50:39.853Z,987.05
2018-07-14T02:51:39.818Z,987.03
2018-07-14T02:52:39.787Z,987.05
2018-07-14T02:53:39.761Z,987.02
2018-07-14T02:54:39.725Z,987.03
2018-07-14T02:55:39.697Z,987.02
2018-07-14T02:56:39.662Z,986.99
2018-07-14T02:57:39.627Z,986.98
2018-07-14T02:58:39.594Z,987.00
2018-07-14T02:59:39.627Z,986.99
2018-07-14T03:00:39.526Z,986.99
2018-07-14T03:01:39.495Z,986.99
2018-07-14T03:02:39.463Z,987.01
2018-07-14T03:03:39.432Z,987.00
2018-07-14T03:04:39.395Z,987.02
2018-07-14T03:05:39.370Z,987.03
2018-07-14T03:06:39.331Z,987.02
2018-07-14T03:07:39.302Z,987.01
2018-07-14T03:08:39.271Z,986.99
2018-07-14T03:09:39.236Z,987.01
2018-07-14T03:10:39.199Z,987.06
2018-07-14T03:11:39.164Z,987.04
2018-07-14T03:12:39.133Z,987.03
2018-07-14T03:13:39.107Z,987.03
2018-07-14T03:14:39.071Z,987.03
2018-07-14T03:15:39.090Z,987.02
2018-07-14T03:16:39.008Z,987.03
2018-07-14T03:17:39.024Z,987.00
2018-07-14T03:18:38.941Z,987.02
2018-07-14T03:19:38.903Z,986.92
2018-07-14T03:20:38.946Z,986.93
2018-07-14T03:21:38.842Z,986.96
2018-07-14T03:22:38.809Z,986.93
2018-07-14T03:23:38.774Z,986.92
2018-07-14T03:24:38.743Z,986.93
2018-07-14T03:25:38.708Z,986.91
2018-07-14T03:26:38.676Z,986.91
2018-07-14T03:27:38.647Z,986.94
2018-07-14T03:28:38.613Z,986.94
2018-07-14T03:29:38.578Z,986.94
2018-07-14T03:30:38.546Z,986.96
2018-07-14T03:31:38.508Z,986.99
2018-07-14T03:32:38.477Z,986.94
2018-07-14T03:33:38.445Z,986.96
2018-07-14T03:34:38.414Z,986.97
2018-07-14T03:35:38.385Z,986.99
2018-07-14T03:36:38.398Z,986.98
2018-07-14T03:37:38.313Z,986.99
2018-07-14T03:38:38.281Z,986.99
2018-07-14T03:39:38.251Z,986.96
2018-07-14T03:40:38.219Z,986.97
2018-07-14T03:41:38.183Z,986.96
2018-07-14T03:42:38.151Z,986.96
2018-07-14T03:43:38.113Z,987.00
2018-07-14T03:44:38.080Z,986.96
2018-07-14T03:45:38.050Z,986.98
2018-07-14T03:46:38.019Z,987.00
2018-07-14T03:47:37.989Z,987.02
2018-07-14T03:48:37.955Z,987.00
2018-07-14T03:49:37.922Z,987.06
2018-07-14T03:50:37.885Z,987.04
2018-07-14T03:51:37.850Z,987.02
2018-07-14T04:08:49.122Z,986.94
2018-07-14T04:09:49.052Z,986.99
2018-07-14T04:10:49.012Z,987.00
2018-07-14T04:11:48.972Z,987.02
2018-07-14T04:12:48.937Z,987.00
2018-07-14T04:13:48.898Z,987.04
2018-07-14T04:14:48.940Z,987.04
2018-07-14T04:15:48.830Z,987.08
2018-07-14T04:16:48.790Z,987.05
2018-07-14T04:17:48.753Z,987.06
2018-07-14T04:18:48.724Z,987.04
2018-07-14T04:19:48.690Z,987.04
2018-07-14T04:20:48.655Z,987.02
2018-07-14T04:21:48.617Z,987.01
2018-07-14T04:22:48.580Z,987.01
2018-07-14T04:23:48.544Z,987.00
2018-07-14T04:24:48.519Z,987.03
2018-07-14T04:25:48.477Z,987.01
2018-07-14T04:26:48.444Z,987.04
2018-07-14T04:27:48.413Z,987.03
2018-07-14T04:28:48.380Z,987.04
2018-07-14T04:29:48.346Z,987.05
2018-07-14T04:30:48.308Z,987.05
2018-07-14T04:31:48.274Z,987.04
2018-07-14T04:32:48.244Z,987.01
2018-07-14T04:33:48.209Z,987.03
2018-07-14T04:34:48.174Z,987.00
2018-07-14T04:35:48.138Z,987.01
2018-07-14T04:36:48.105Z,986.99
2018-07-14T04:37:48.071Z,986.99
2018-07-14T04:38:48.041Z,987.00
2018-07-14T04:39:48.010Z,987.03
2018-07-14T04:40:47.976Z,987.04
2018-07-14T04:41:47.940Z,987.01
2018-07-14T04:42:47.907Z,987.03
2018-07-14T04:43:47.869Z,987.04
2018-07-14T04:44:47.836Z,987.06
2018-07-14T04:45:47.811Z,987.09
2018-07-14T04:46:47.774Z,987.11
2018-07-14T04:47:47.744Z,987.10
2018-07-14T04:48:47.706Z,987.10
2018-07-14T04:49:47.679Z,987.11
2018-07-14T04:50:47.641Z,987.11
2018-07-14T04:51:47.610Z,987.11
2018-07-14T04:52:47.576Z,987.15
2018-07-14T04:53:47.540Z,987.15
2018-07-14T04:54:47.506Z,987.14
2018-07-14T04:55:47.472Z,987.17
2018-07-14T04:56:47.443Z,987.13
2018-07-14T04:57:47.408Z,987.12
2018-07-14T04:58:47.379Z,987.10
2018-07-14T04:59:47.346Z,987.12
2018-07-14T05:00:47.313Z,987.12
2018-07-14T05:01:47.278Z,987.15
2018-07-14T05:02:47.242Z,987.13
2018-07-14T05:03:47.209Z,987.17
2018-07-14T05:04:47.183Z,987.15
2018-07-14T05:05:47.147Z,987.19
2018-07-14T05:06:47.116Z,987.20
2018-07-14T05:07:47.077Z,987.23
2018-07-14T05:08:47.044Z,987.26
2018-07-14T05:09:47.016Z,987.25
2018-07-14T05:10:46.981Z,987.24
2018-07-14T05:11:46.951Z,987.25
2018-07-14T05:12:46.912Z,987.26
2018-07-14T05:13:46.882Z,987.22
2018-07-14T05:14:46.851Z,987.22
2018-07-14T05:15:46.820Z,987.22
2018-07-14T05:16:46.788Z,987.23
2018-07-14T05:17:46.754Z,987.25
2018-07-14T05:18:46.716Z,987.25
2018-07-14T05:19:46.683Z,987.28
2018-07-14T05:20:46.657Z,987.30
2018-07-14T05:21:46.622Z,987.28
2018-07-14T05:22:46.586Z,987.28
2018-07-14T05:23:46.556Z,987.29
2018-07-14T05:24:46.520Z,987.30
2018-07-14T05:25:46.489Z,987.27
2018-07-14T05:26:46.464Z,987.29
2018-07-14T05:27:46.428Z,987.26
2018-07-14T05:28:46.409Z,987.22
2018-07-14T05:29:46.362Z,987.23
2018-07-14T05:30:46.326Z,987.20
2018-07-14T05:31:46.293Z,987.21
2018-07-14T05:32:46.261Z,987.22
2018-07-14T05:33:46.237Z,987.19
2018-07-14T05:34:46.200Z,987.22
2018-07-14T05:35:46.171Z,987.22
2018-07-14T05:36:46.131Z,987.22
2018-07-14T05:37:46.101Z,987.23
2018-07-14T05:38:46.071Z,987.23
2018-07-14T05:39:46.040Z,987.23
2018-07-14T05:40:46.009Z,987.25
2018-07-14T05:41:45.974Z,987.20
2018-07-14T05:42:45.940Z,987.19
2018-07-14T05:43:45.907Z,987.19
2018-07-14T05:44:45.876Z,987.22
2018-07-14T05:45:45.846Z,987.22
2018-07-14T05:46:45.813Z,987.20
2018-07-14T05:47:45.786Z,987.22
2018-07-14T05:48:45.752Z,987.22
2018-07-14T05:49:45.724Z,987.20
2018-07-14T05:50:45.683Z,987.22
2018-07-14T05:51:45.650Z,987.24
2018-07-14T05:52:45.625Z,987.20
2018-07-14T05:53:45.590Z,987.22
2018-07-14T05:54:45.572Z,987.23
2018-07-14T05:55:45.571Z,987.22
2018-07-14T05:56:45.497Z,987.28
2018-07-14T05:57:45.466Z,987.29
2018-07-14T05:58:45.431Z,987.31
2018-07-14T05:59:45.408Z,987.32
2018-07-14T06:00:45.373Z,987.36
2018-07-14T06:01:45.340Z,987.39
2018-07-14T06:02:45.301Z,987.34
2018-07-14T06:03:45.269Z,987.37
2018-07-14T06:04:45.237Z,987.36
2018-07-14T06:05:45.208Z,987.37
2018-07-14T06:06:45.179Z,987.40
2018-07-14T06:07:45.169Z,987.36
2018-07-14T06:08:45.112Z,987.41
2018-07-14T06:09:45.083Z,987.41
2018-07-14T06:10:45.053Z,987.41
2018-07-14T06:11:45.024Z,987.44
2018-07-14T06:12:44.992Z,987.43
2018-07-14T06:13:44.961Z,987.46
2018-07-14T06:14:44.926Z,987.46
2018-07-14T06:15:44.893Z,987.46
2018-07-14T06:16:44.866Z,987.47
2018-07-14T06:17:44.833Z,987.50
2018-07-14T06:18:44.803Z,987.48
2018-07-14T06:19:44.774Z,987.49
2018-07-14T06:20:44.744Z,987.51
2018-07-14T06:21:44.709Z,987.52
2018-07-14T06:22:44.678Z,987.58
2018-07-14T06:23:44.642Z,987.50
2018-07-14T06:24:44.619Z,987.53
2018-07-14T06:25:44.584Z,987.51
2018-07-14T06:26:44.552Z,987.53
2018-07-14T06:27:44.520Z,987.53
2018-07-14T06:28:44.490Z,987.54
2018-07-14T06:29:44.458Z,987.56
2018-07-14T06:30:44.435Z,987.57
2018-07-14T06:31:44.403Z,987.58
2018-07-14T06:32:44.371Z,987.60
2018-07-14T06:33:44.336Z,987.60
2018-07-14T06:34:44.312Z,987.57
2018-07-14T06:35:44.272Z,987.60
2018-07-14T06:36:44.241Z,987.62
2018-07-14T06:37:44.212Z,987.61
2018-07-14T06:38:44.195Z,987.62
2018-07-14T06:39:44.161Z,987.64
2018-07-14T06:40:44.119Z,987.65
2018-07-14T06:41:44.090Z,987.65
2018-07-14T06:42:44.062Z,987.69
2018-07-14T06:43:44.034Z,987.67
2018-07-14T06:44:44.007Z,987.69
2018-07-14T06:45:43.971Z,987.68
2018-07-14T06:46:43.937Z,987.68
2018-07-14T06:47:43.905Z,987.67
2018-07-14T06:48:43.875Z,987.67
2018-07-14T06:49:43.848Z,987.66
2018-07-14T06:50:43.822Z,987.68
2018-07-14T06:51:43.789Z,987.67
2018-07-14T06:52:43.761Z,987.70
2018-07-14T06:53:43.726Z,987.67
2018-07-14T06:54:43.694Z,987.67
2018-07-14T06:55:43.662Z,987.69
2018-07-14T06:56:43.638Z,987.68
2018-07-14T06:57:43.609Z,987.66
2018-07-14T06:58:43.576Z,987.67
2018-07-14T06:59:43.542Z,987.66
2018-07-14T07:00:43.514Z,987.67
2018-07-14T07:01:43.488Z,987.64
2018-07-14T07:02:43.456Z,987.66
2018-07-14T07:03:43.436Z,987.69
2018-07-14T07:04:43.397Z,987.63
2018-07-14T07:05:43.367Z,987.65
2018-07-14T07:06:43.338Z,987.65
2018-07-14T07:07:43.303Z,987.69
2018-07-14T07:08:43.272Z,987.67
2018-07-14T07:09:43.243Z,987.69
2018-07-14T07:10:43.217Z,987.72
2018-07-14T07:11:43.189Z,987.71
2018-07-14T07:12:43.157Z,987.71
2018-07-14T07:13:43.138Z,987.72
2018-07-14T07:14:43.101Z,987.74
2018-07-14T07:15:43.070Z,987.76
2018-07-14T07:16:43.040Z,987.73
2018-07-14T07:17:43.007Z,987.70
2018-07-14T07:18:42.976Z,987.78
2018-07-14T07:19:42.944Z,987.74
2018-07-14T07:20:42.914Z,987.75
2018-07-14T07:21:42.886Z,987.76
2018-07-14T07:22:42.859Z,987.76
2018-07-14T07:23:42.833Z,987.76
2018-07-14T07:24:42.803Z,987.79
2018-07-14T07:25:42.770Z,987.76
2018-07-14T07:26:42.812Z,987.77
2018-07-14T07:27:42.713Z,987.81
2018-07-14T07:28:42.708Z,987.76
2018-07-14T07:29:42.664Z,987.79
2018-07-14T07:30:42.622Z,987.79
2018-07-14T07:31:42.589Z,987.82
2018-07-14T07:32:42.561Z,987.83
2018-07-14T07:33:42.533Z,987.85
2018-07-14T07:34:42.569Z,987.84
2018-07-14T07:35:42.477Z,987.85
2018-07-14T07:36:42.449Z,987.84
2018-07-14T07:37:42.417Z,987.86
2018-07-14T07:38:42.384Z,987.81
2018-07-14T07:39:42.353Z,987.83
2018-07-14T07:40:42.325Z,987.84
2018-07-14T07:41:42.295Z,987.82
2018-07-14T07:42:42.291Z,987.81
2018-07-14T07:43:42.242Z,987.85
2018-07-14T07:44:42.207Z,987.83
2018-07-14T07:45:42.179Z,987.85
2018-07-14T07:46:42.150Z,987.82
2018-07-14T07:47:42.125Z,987.82
2018-07-14T07:48:42.094Z,987.83
2018-07-14T07:49:42.062Z,987.80
2018-07-14T07:50:42.031Z,987.79
2018-07-14T07:51:42.002Z,987.80
2018-07-14T07:52:41.972Z,987.78
2018-07-14T07:53:41.947Z,987.76
2018-07-14T07:54:41.919Z,987.76
2018-07-14T07:55:41.891Z,987.76
2018-07-14T07:56:41.872Z,987.78
2018-07-14T07:57:41.831Z,987.77
2018-07-14T07:58:41.797Z,987.75
2018-07-14T07:59:41.767Z,987.77
2018-07-14T08:00:41.814Z,987.73
2018-07-14T08:01:41.924Z,987.70
2018-07-14T08:02:41.683Z,987.74
2018-07-14T08:03:41.652Z,987.71
2018-07-14T08:04:41.622Z,987.71
2018-07-14T08:05:41.596Z,987.76
2018-07-14T08:06:41.571Z,987.70
2018-07-14T08:07:41.539Z,987.72
2018-07-14T08:08:41.558Z,987.74
2018-07-14T08:09:41.478Z,987.77
2018-07-14T08:10:41.450Z,987.72
2018-07-14T08:11:41.418Z,987.69
2018-07-14T08:12:41.389Z,987.74
2018-07-14T08:13:41.359Z,987.74
2018-07-14T08:14:41.342Z,987.76
2018-07-14T08:15:41.307Z,987.71
2018-07-14T08:16:41.273Z,987.79
2018-07-14T08:17:41.283Z,987.77
2018-07-14T08:18:41.222Z,987.78
2018-07-14T08:19:41.195Z,987.78
2018-07-14T08:20:41.164Z,987.79
2018-07-14T08:21:41.131Z,987.81
2018-07-14T08:22:41.117Z,987.80
2018-07-14T08:23:41.074Z,987.74
2018-07-14T08:24:41.040Z,987.76
2018-07-14T08:25:41.015Z,987.73
2018-07-14T08:26:40.986Z,987.74
2018-07-14T08:27:40.959Z,987.74
2018-07-14T08:28:40.933Z,987.72
2018-07-14T08:29:40.900Z,987.69
2018-07-14T08:30:40.867Z,987.74
2018-07-14T08:31:40.839Z,987.72
2018-07-14T08:32:40.814Z,987.73
2018-07-14T08:33:40.786Z,987.69
2018-07-14T08:34:40.754Z,987.73
2018-07-14T08:35:40.723Z,987.68
2018-07-14T08:36:40.693Z,987.69
2018-07-14T08:37:40.664Z,987.70
2018-07-14T08:38:40.637Z,987.71
2018-07-14T08:39:40.612Z,987.67
2018-07-14T08:40:40.585Z,987.70
2018-07-14T08:41:40.555Z,987.66
2018-07-14T08:42:40.520Z,987.73
2018-07-14T08:43:40.494Z,987.73
2018-07-14T08:44:40.462Z,987.70
2018-07-14T08:45:40.435Z,987.70
2018-07-14T08:46:40.407Z,987.74
2018-07-14T08:47:40.378Z,987.73
2018-07-14T08:48:40.345Z,987.74
2018-07-14T08:49:40.320Z,987.77
2018-07-14T08:50:40.290Z,987.75
2018-07-14T08:51:40.265Z,987.74
2018-07-14T08:52:40.233Z,987.75
2018-07-14T08:53:40.202Z,987.72
2018-07-14T08:54:40.172Z,987.70
2018-07-14T08:55:40.142Z,987.73
2018-07-14T08:56:40.114Z,987.75
2018-07-14T08:57:40.084Z,987.74
2018-07-14T08:58:40.058Z,987.73
2018-07-14T08:59:40.031Z,987.76
2018-07-14T09:00:40.003Z,987.73
2018-07-14T09:01:39.973Z,987.72
2018-07-14T09:02:39.940Z,987.72
2018-07-14T09:03:39.957Z,987.73
2018-07-14T09:04:39.888Z,987.76
2018-07-14T09:05:39.854Z,987.71
2018-07-14T09:06:39.827Z,987.78
2018-07-14T09:07:39.793Z,987.72
2018-07-14T09:08:39.765Z,987.73
2018-07-14T09:09:39.739Z,987.73
2018-07-14T09:10:39.715Z,987.70
2018-07-14T09:11:39.683Z,987.72
2018-07-14T09:12:39.654Z,987.68
2018-07-14T09:13:39.622Z,987.68
2018-07-14T09:14:39.593Z,987.69
2018-07-14T09:15:39.562Z,987.68
2018-07-14T09:16:39.537Z,987.67
2018-07-14T09:17:39.506Z,987.64
2018-07-14T09:18:39.479Z,987.69
2018-07-14T09:19:39.451Z,987.65
2018-07-14T09:20:39.419Z,987.67
2018-07-14T09:21:39.392Z,987.73
2018-07-14T09:22:39.363Z,987.71
2018-07-14T09:23:39.337Z,987.71
2018-07-14T09:24:39.309Z,987.74
2018-07-14T09:25:39.278Z,987.71
2018-07-14T09:26:39.246Z,987.69
2018-07-14T09:27:39.216Z,987.69
2018-07-14T09:28:39.191Z,987.65
2018-07-14T09:29:39.157Z,987.67
2018-07-14T09:30:39.135Z,987.68
2018-07-14T09:31:39.105Z,987.68
2018-07-14T09:32:39.135Z,987.64
2018-07-14T09:33:39.052Z,987.65
2018-07-14T09:34:39.014Z,987.62
2018-07-14T09:35:38.993Z,987.60
2018-07-14T09:36:39.072Z,987.58
2018-07-14T09:37:38.934Z,987.64
2018-07-14T09:38:38.900Z,987.58
2018-07-14T09:39:38.874Z,987.50
2018-07-14T09:40:38.846Z,987.57
2018-07-14T09:41:38.813Z,987.56
2018-07-14T09:42:38.790Z,987.52
2018-07-14T09:43:38.760Z,987.55
2018-07-14T09:44:38.789Z,987.58
2018-07-14T09:45:38.704Z,987.49
2018-07-14T09:46:38.669Z,987.51
2018-07-14T09:47:38.688Z,987.56
2018-07-14T09:48:38.619Z,987.50
2018-07-14T09:49:38.584Z,987.45
2018-07-14T09:50:38.914Z,987.48
2018-07-14T09:51:38.534Z,987.49
2018-07-14T09:52:38.506Z,987.50
2018-07-14T09:53:38.470Z,987.52
2018-07-14T09:54:38.450Z,987.45
2018-07-14T09:55:38.417Z,987.46
2018-07-14T09:56:38.391Z,987.45
2018-07-14T09:57:38.360Z,987.47
2018-07-14T09:58:38.326Z,987.43
2018-07-14T09:59:38.302Z,987.47
2018-07-14T10:00:38.272Z,987.45
2018-07-14T10:01:38.242Z,987.49
2018-07-14T10:02:38.219Z,987.50
2018-07-14T10:03:38.194Z,987.47
2018-07-14T10:04:38.160Z,987.45
2018-07-14T10:05:38.135Z,987.39
2018-07-14T10:06:38.098Z,987.38
2018-07-14T10:07:38.072Z,987.43
2018-07-14T10:22:17.312Z,987.40
2018-07-14T10:23:17.180Z,987.42
2018-07-14T10:24:17.285Z,987.34
2018-07-14T10:25:17.335Z,987.34
2018-07-14T10:26:17.145Z,987.40
2018-07-14T10:27:17.044Z,987.42
2018-07-14T10:28:17.012Z,987.39
2018-07-14T10:29:16.986Z,987.36
2018-07-14T10:30:16.953Z,987.34
2018-07-14T10:31:16.923Z,987.37
2018-07-14T10:32:16.896Z,987.34
2018-07-14T10:33:16.862Z,987.34
2018-07-14T10:34:16.831Z,987.29
2018-07-14T10:35:16.802Z,987.27
2018-07-14T10:36:16.769Z,987.30
2018-07-14T10:37:16.744Z,987.30
2018-07-14T10:38:16.716Z,987.33
2018-07-14T10:39:16.680Z,987.31
2018-07-14T10:40:16.669Z,987.27
2018-07-14T10:41:16.622Z,987.30
2018-07-14T10:42:16.669Z,987.22
2018-07-14T10:43:16.578Z,987.21
2018-07-14T10:44:16.545Z,987.21
2018-07-14T10:45:16.551Z,987.21
2018-07-14T10:46:16.481Z,987.26
2018-07-14T10:47:16.461Z,987.18
2018-07-14T10:48:16.418Z,987.21
2018-07-14T10:49:16.388Z,987.18
2018-07-14T10:50:16.370Z,987.18
2018-07-14T10:51:16.336Z,987.16
2018-07-14T10:52:16.311Z,987.13
2018-07-14T10:53:16.277Z,987.08
2018-07-14T10:54:16.251Z,987.12
2018-07-14T10:55:16.322Z,987.09
2018-07-14T10:56:16.201Z,987.08
2018-07-14T10:57:16.166Z,987.07
2018-07-14T10:58:16.142Z,987.09
2018-07-14T10:59:16.104Z,987.08
2018-07-14T11:00:16.084Z,987.09
2018-07-14T11:01:16.045Z,987.06
2018-07-14T11:02:16.021Z,987.06
2018-07-14T11:03:15.991Z,987.03
2018-07-14T11:04:15.970Z,987.05
2018-07-14T11:05:15.938Z,987.08
2018-07-14T11:06:15.910Z,987.03
2018-07-14T11:07:15.979Z,986.99
2018-07-14T11:08:15.856Z,986.98
2018-07-14T11:09:15.826Z,987.00
2018-07-14T11:10:15.795Z,986.97
2018-07-14T11:11:15.767Z,986.98
2018-07-14T11:12:15.846Z,987.00
2018-07-14T11:13:15.722Z,986.97
2018-07-14T11:14:15.682Z,986.98
2018-07-14T11:15:15.658Z,986.97
2018-07-14T11:16:15.627Z,986.98
2018-07-14T11:17:15.599Z,986.93
2018-07-14T11:18:15.574Z,986.95
2018-07-14T11:19:15.538Z,986.91
2018-07-14T11:20:15.508Z,986.91
2018-07-14T11:21:15.484Z,986.93
2018-07-14T11:22:15.462Z,986.94
2018-07-14T11:23:15.430Z,986.90
2018-07-14T11:24:15.407Z,986.86
2018-07-14T11:25:15.377Z,986.92
2018-07-14T11:26:15.344Z,986.90
2018-07-14T11:27:15.323Z,986.95
2018-07-14T11:28:15.292Z,986.93
2018-07-14T11:29:15.266Z,986.94
2018-07-14T11:30:15.264Z,986.88
2018-07-14T11:31:15.206Z,986.86
2018-07-14T11:32:15.181Z,986.86
2018-07-14T11:33:15.145Z,986.82
2018-07-14T11:34:15.122Z,986.85
2018-07-14T11:35:15.101Z,986.85
2018-07-14T11:36:15.070Z,986.86
2018-07-14T11:37:15.043Z,986.87
2018-07-14T11:38:15.012Z,986.88
2018-07-14T11:39:14.980Z,986.87
2018-07-14T11:40:14.952Z,986.90
2018-07-14T11:41:14.930Z,986.88
2018-07-14T11:42:15.035Z,986.85
2018-07-14T11:43:14.875Z,986.85
2018-07-14T11:44:14.842Z,986.88
2018-07-14T11:45:14.814Z,986.80
2018-07-14T11:46:14.789Z,986.77
2018-07-14T11:47:14.762Z,986.78
2018-07-14T11:48:14.738Z,986.75
2018-07-14T11:49:14.709Z,986.73
2018-07-14T11:50:14.680Z,986.74
2018-07-14T11:51:14.647Z,986.78
2018-07-14T11:52:14.618Z,986.83
2018-07-14T11:53:14.593Z,986.74
2018-07-14T11:54:14.622Z,986.73
2018-07-14T11:55:14.540Z,986.74
2018-07-14T11:56:14.517Z,986.75
2018-07-14T11:57:14.486Z,986.76
2018-07-14T11:58:14.463Z,986.74
2018-07-14T11:59:14.431Z,986.70
2018-07-14T12:00:14.405Z,986.69
2018-07-14T12:01:14.409Z,986.70
2018-07-14T12:02:14.351Z,986.67
2018-07-14T12:03:14.319Z,986.68
2018-07-14T12:04:14.289Z,986.67
2018-07-14T12:05:14.261Z,986.68
2018-07-14T12:06:14.239Z,986.61
2018-07-14T12:07:14.234Z,986.59
2018-07-14T12:08:14.186Z,986.55
2018-07-14T12:09:14.159Z,986.50
2018-07-14T12:10:14.129Z,986.45
2018-07-14T12:11:14.100Z,986.53
2018-07-14T12:12:14.073Z,986.55
2018-07-14T12:13:14.050Z,986.55
2018-07-14T12:14:14.021Z,986.55
2018-07-14T12:15:13.993Z,986.56
2018-07-14T12:16:13.962Z,986.53
2018-07-14T12:17:13.935Z,986.55
2018-07-14T12:18:13.910Z,986.52
2018-07-14T12:19:13.882Z,986.52
2018-07-14T12:20:13.859Z,986.47
2018-07-14T12:21:13.829Z,986.55
2018-07-14T12:22:13.866Z,986.48
2018-07-14T12:23:13.772Z,986.56
2018-07-14T12:24:13.750Z,986.51
2018-07-14T12:25:13.715Z,986.55
2018-07-14T12:26:13.695Z,986.49
2018-07-14T12:27:13.665Z,986.52
2018-07-14T12:28:13.652Z,986.52
2018-07-14T12:29:13.703Z,986.46
2018-07-14T12:30:13.603Z,986.48
2018-07-14T12:31:13.603Z,986.51
2018-07-14T12:32:13.532Z,986.51
2018-07-14T12:33:13.503Z,986.47
2018-07-14T12:34:13.476Z,986.51
2018-07-14T12:35:13.444Z,986.46
2018-07-14T12:36:13.419Z,986.44
2018-07-14T12:37:13.396Z,986.41
2018-07-14T12:38:13.362Z,986.43
2018-07-14T12:39:13.337Z,986.45
2018-07-14T12:40:13.313Z,986.43
2018-07-14T12:41:13.286Z,986.42
2018-07-14T12:42:13.255Z,986.38
2018-07-14T12:43:13.233Z,986.39
2018-07-14T12:44:13.195Z,986.37
2018-07-14T12:45:13.178Z,986.37
2018-07-14T12:46:13.147Z,986.34
2018-07-14T12:47:13.117Z,986.29
2018-07-14T12:48:13.088Z,986.33
2018-07-14T12:49:13.063Z,986.33
2018-07-14T12:50:13.037Z,986.22
2018-07-14T12:51:13.013Z,986.23
2018-07-14T12:52:12.987Z,986.23
2018-07-14T12:53:12.960Z,986.27
2018-07-14T12:54:12.935Z,986.24
2018-07-14T12:55:12.926Z,986.30
2018-07-14T12:56:12.876Z,986.26
2018-07-14T12:57:12.847Z,986.26
2018-07-14T12:58:12.819Z,986.25